Time,TemperatureF,DewpointF,PressureIn,WindDirection,WindDirectionDegrees,WindSpeedMPH,WindSpeedGustMPH,Humidity,HourlyPrecipIn,Conditions,Clouds,dailyrainin,SolarRadiationWatts/m^2,SoftwareType,DateUTC
2013-10-26 12:46:00,78.3,44.1,29.72,North,-999,-999.0,-999.0,5,0.00,,,-99.99,0.0,Linux-Irox,2013-10-26 19:46:00,
2013-10-26 13:01:00,77.2,43.0,29.71,North,-999,-999.0,-999.0,5,0.00,,,-99.99,0.0,Linux-Irox,2013-10-26 20:01:00,
2013-10-26 13:16:00,78.4,44.2,29.70,North,-999,-999.0,-999.0,5,0.00,,,-99.99,0.0,Linux-Irox,2013-10-26 20:16:00,
2013-10-26 13:31:00,77.7,43.5,29.70,North,-999,-999.0,-999.0,5,0.00,,,-99.99,0.0,Linux-Irox,2013-10-26 20:31:00,
2013-10-26 13:46:00,78.1,43.9,29.68,North,-999,-999.0,-999.0,5,0.00,,,-99.99,0.0,Linux-Irox,2013-10-26 20:46:00,
2013-10-26 14:01:00,78.6,44.4,29.67,North,-999,-999.0,-999.0,5,0.00,,,-99.99,0.0,Linux-Irox,2013-10-26 21:01:00,
2013-10-26 14:16:00,79.2,45.0,29.67,North,-999,-999.0,-999.0,5,0.00,,,-99.99,0.0,Linux-Irox,2013-10-26 21:16:00,
2013-10-26 14:31:00,79.3,45.1,29.67,North,-999,-999.0,-999.0,5,0.00,,,-99.99,0.0,Linux-Irox,2013-10-26 21:31:00,
2013-10-26 14:46:00,80.1,45.9,29.66,North,-999,-999.0,-999.0,5,0.00,,,-99.99,0.0,Linux-Irox,2013-10-26 21:46:00,
2013-10-26 15:01:00,79.9,45.7,29.65,North,-999,-999.0,-999.0,5,0.00,,,-99.99,0.0,Linux-Irox,2013-10-26 22:01:00,
2013-10-26 15:16:00,78.8,44.6,29.63,North,-999,-999.0,-999.0,5,0.00,,,-99.99,0.0,Linux-Irox,2013-10-26 22:16:00,
2013-10-26 15:31:00,78.3,44.1,29.63,North,-999,-999.0,-999.0,5,0.00,,,-99.99,0.0,Linux-Irox,2013-10-26 22:31:00,
2013-10-26 15:46:00,77.0,42.8,29.61,North,-999,-999.0,-999.0,5,0.00,,,-99.99,0.0,Linux-Irox,2013-10-26 22:46:00,
2013-10-26 16:01:00,76.5,42.3,29.62,North,-999,-999.0,-999.0,5,0.00,,,-99.99,0.0,Linux-Irox,2013-10-26 23:01:00,
2013-10-26 16:16:00,75.4,41.2,29.62,North,-999,-999.0,-999.0,5,0.00,,,-99.99,0.0,Linux-Irox,2013-10-26 23:16:00,
2013-10-26 16:31:00,74.8,40.6,29.62,North,-999,-999.0,-999.0,5,0.00,,,-99.99,0.0,Linux-Irox,2013-10-26 23:31:00,
2013-10-26 16:46:00,74.1,39.9,29.63,North,-999,-999.0,-999.0,5,0.00,,,-99.99,0.0,Linux-Irox,2013-10-26 23:46:00,
2013-10-26 17:01:00,73.2,39.0,29.62,North,-999,-999.0,-999.0,5,0.00,,,-99.99,0.0,Linux-Irox,2013-10-27 00:01:00,
2013-10-26 17:16:00,71.6,37.4,29.62,North,-999,-999.0,-999.0,5,0.00,,,-99.99,0.0,Linux-Irox,2013-10-27 00:16:00,
2013-10-26 17:31:00,70.5,36.3,29.62,North,-999,-999.0,-999.0,5,0.00,,,-99.99,0.0,Linux-Irox,2013-10-27 00:31:00,
2013-10-26 17:46:00,68.9,34.7,29.62,North,-999,-999.0,-999.0,5,0.00,,,-99.99,0.0,Linux-Irox,2013-10-27 00:46:00,
2013-10-26 18:01:00,67.1,32.9,29.61,North,-999,-999.0,-999.0,5,0.00,,,-99.99,0.0,Linux-Irox,2013-10-27 01:01:00,
2013-10-26 18:16:00,65.5,31.3,29.63,North,-999,-999.0,-999.0,5,0.00,,,-99.99,0.0,Linux-Irox,2013-10-27 01:16:00,
2013-10-26 18:31:00,64.2,30.0,29.63,North,-999,-999.0,-999.0,5,0.00,,,-99.99,0.0,Linux-Irox,2013-10-27 01:31:00,
2013-10-26 18:46:00,63.1,28.9,29.62,North,-999,-999.0,-999.0,5,0.00,,,-99.99,0.0,Linux-Irox,2013-10-27 01:46:00,
2013-10-26 19:01:00,62.4,28.2,29.62,North,-999,-999.0,-999.0,5,0.00,,,-99.99,0.0,Linux-Irox,2013-10-27 02:01:00,
2013-10-26 19:16:00,61.5,27.3,29.63,North,-999,-999.0,-999.0,5,0.00,,,-99.99,0.0,Linux-Irox,2013-10-27 02:16:00,
2013-10-26 19:31:00,61.0,26.8,29.63,North,-999,-999.0,-999.0,5,0.00,,,-99.99,0.0,Linux-Irox,2013-10-27 02:31:00,
2013-10-26 19:46:00,61.3,27.1,29.62,North,-999,-999.0,-999.0,5,0.00,,,-99.99,0.0,Linux-Irox,2013-10-27 02:46:00,
2013-10-26 20:01:00,60.1,25.9,29.63,North,-999,-999.0,-999.0,5,0.00,,,-99.99,0.0,Linux-Irox,2013-10-27 03:01:00,
2013-10-26 20:17:00,59.7,25.5,29.63,North,-999,-999.0,-999.0,5,0.00,,,-99.99,0.0,Linux-Irox,2013-10-27 03:17:00,
2013-10-26 20:31:00,58.8,24.6,29.63,North,-999,-999.0,-999.0,5,0.00,,,-99.99,0.0,Linux-Irox,2013-10-27 03:31:00,
2013-10-26 20:46:00,59.4,25.2,29.62,North,-999,-999.0,-999.0,5,0.00,,,-99.99,0.0,Linux-Irox,2013-10-27 03:46:00,
2013-10-26 21:01:00,59.0,24.8,29.63,North,-999,-999.0,-999.0,5,0.00,,,-99.99,0.0,Linux-Irox,2013-10-27 04:01:00,
2013-10-26 21:16:00,58.6,24.4,29.63,North,-999,-999.0,-999.0,5,0.00,,,-99.99,0.0,Linux-Irox,2013-10-27 04:16:00,
2013-10-26 21:31:00,58.8,24.6,29.63,North,-999,-999.0,-999.0,5,0.00,,,-99.99,0.0,Linux-Irox,2013-10-27 04:31:00,
2013-10-26 21:34:00,58.8,24.6,29.63,North,-999,-999.0,-999.0,5,-0.33,,,-99.99,0.0,Linux-Irox,2013-10-27 04:34:00,
2013-10-26 21:44:00,58.6,24.4,29.62,North,-999,-999.0,-999.0,5,-0.33,,,-99.99,0.0,Linux-Irox,2013-10-27 04:44:00,
2013-10-26 21:46:00,58.6,24.4,29.62,North,-999,-999.0,-999.0,5,0.00,,,-99.99,0.0,Linux-Irox,2013-10-27 04:46:00,
2013-10-26 21:54:00,58.5,24.3,29.62,North,-999,-999.0,-999.0,5,-0.33,,,-99.99,0.0,Linux-Irox,2013-10-27 04:54:00,
2013-10-26 22:04:00,58.3,24.1,29.62,North,-999,-999.0,-999.0,5,-0.33,,,-99.99,0.0,Linux-Irox,2013-10-27 05:04:00,
2013-10-26 22:14:00,58.1,23.9,29.62,North,-999,-999.0,-999.0,5,-0.33,,,-99.99,0.0,Linux-Irox,2013-10-27 05:14:00,
2013-10-26 22:24:00,58.1,23.9,29.63,North,-999,-999.0,-999.0,5,-0.33,,,-99.99,0.0,Linux-Irox,2013-10-27 05:24:00,
2013-10-26 22:34:00,57.9,23.7,29.63,North,-999,-999.0,-999.0,5,-0.33,,,-99.99,0.0,Linux-Irox,2013-10-27 05:34:00,
2013-10-26 22:44:00,57.6,23.4,29.63,North,-999,-999.0,-999.0,5,0.00,,,-99.99,0.0,Linux-Irox,2013-10-27 05:44:00,
2013-10-26 22:54:00,57.6,23.4,29.63,North,-999,-999.0,-999.0,5,0.00,,,-99.99,0.0,Linux-Irox,2013-10-27 05:54:00,
2013-10-26 23:04:00,57.4,23.2,29.63,North,-999,-999.0,-999.0,5,0.00,,,-99.99,0.0,Linux-Irox,2013-10-27 06:04:00,
2013-10-26 23:14:00,57.4,23.2,29.63,North,-999,-999.0,-999.0,5,0.00,,,-99.99,0.0,Linux-Irox,2013-10-27 06:14:00,
2013-10-26 23:24:00,57.2,23.0,29.63,North,-999,-999.0,-999.0,5,0.00,,,-99.99,0.0,Linux-Irox,2013-10-27 06:24:00,
2013-10-26 23:34:00,57.0,22.8,29.63,North,-999,-999.0,-999.0,5,0.00,,,-99.99,0.0,Linux-Irox,2013-10-27 06:34:00,
2013-10-26 23:44:00,56.7,22.5,29.62,North,-999,-999.0,-999.0,5,0.00,,,-99.99,0.0,Linux-Irox,2013-10-27 06:44:00,
2013-10-26 23:54:00,56.5,22.3,29.62,North,-999,-999.0,-999.0,5,0.00,,,-99.99,0.0,Linux-Irox,2013-10-27 06:54:00,